sensor_id;sensor_type;location;lat;lon;timestamp;pressure;altitude;pressure_sealevel;temperature;humidity
82266;BME280;71866;53.340;-6.308;2023-08-07T00:02:02;101911.38;;;14.70;72.00
82266;BME280;71866;53.340;-6.308;2023-08-07T00:04:30;101914.22;;;14.69;72.13
82266;BME280;71866;53.340;-6.308;2023-08-07T00:06:57;101906.97;;;14.69;72.06
82266;BME280;71866;53.340;-6.308;2023-08-07T00:09:24;101912.81;;;14.75;72.28
82266;BME280;71866;53.340;-6.308;2023-08-07T00:11:51;101899.84;;;14.59;71.34
82266;BME280;71866;53.340;-6.308;2023-08-07T00:14:19;101902.72;;;14.67;72.75
82266;BME280;71866;53.340;-6.308;2023-08-07T00:16:47;101903.69;;;14.66;72.11
82266;BME280;71866;53.340;-6.308;2023-08-07T00:19:13;101906.66;;;14.63;72.14
82266;BME280;71866;53.340;-6.308;2023-08-07T00:21:40;101901.28;;;14.63;71.75
82266;BME280;71866;53.340;-6.308;2023-08-07T00:24:08;101909.38;;;14.63;72.67
82266;BME280;71866;53.340;-6.308;2023-08-07T00:26:34;101906.66;;;14.63;72.81
82266;BME280;71866;53.340;-6.308;2023-08-07T00:29:02;101899.72;;;14.60;72.62
82266;BME280;71866;53.340;-6.308;2023-08-07T00:31:29;101902.38;;;14.51;72.82
82266;BME280;71866;53.340;-6.308;2023-08-07T00:33:59;101902.41;;;14.39;72.98
82266;BME280;71866;53.340;-6.308;2023-08-07T00:36:27;101904.25;;;14.39;73.96
82266;BME280;71866;53.340;-6.308;2023-08-07T00:38:54;101908.84;;;14.27;73.87
82266;BME280;71866;53.340;-6.308;2023-08-07T00:41:21;101900.72;;;14.18;73.69
82266;BME280;71866;53.340;-6.308;2023-08-07T00:43:48;101903.06;;;14.11;74.55
82266;BME280;71866;53.340;-6.308;2023-08-07T00:46:16;101901.38;;;14.10;74.16
82266;BME280;71866;53.340;-6.308;2023-08-07T00:48:44;101899.78;;;14.07;75.45
82266;BME280;71866;53.340;-6.308;2023-08-07T00:51:11;101896.78;;;14.01;74.97
82266;BME280;71866;53.340;-6.308;2023-08-07T00:53:39;101900.59;;;13.98;75.68
82266;BME280;71866;53.340;-6.308;2023-08-07T00:56:07;101892.63;;;13.97;75.90
82266;BME280;71866;53.340;-6.308;2023-08-07T00:58:34;101902.44;;;13.98;75.92
82266;BME280;71866;53.340;-6.308;2023-08-07T01:01:01;101900.25;;;13.92;76.44
82266;BME280;71866;53.340;-6.308;2023-08-07T01:03:29;101874.03;;;13.73;76.43
82266;BME280;71866;53.340;-6.308;2023-08-07T01:05:56;101904.34;;;13.86;76.97
82266;BME280;71866;53.340;-6.308;2023-08-07T01:08:24;101901.50;;;13.88;77.60
82266;BME280;71866;53.340;-6.308;2023-08-07T01:14:11;101895.00;;;13.90;76.68
82266;BME280;71866;53.340;-6.308;2023-08-07T01:16:50;101899.28;;;13.93;75.88
82266;BME280;71866;53.340;-6.308;2023-08-07T01:19:26;101897.84;;;13.89;76.58
82266;BME280;71866;53.340;-6.308;2023-08-07T01:22:10;101894.88;;;13.92;76.55
82266;BME280;71866;53.340;-6.308;2023-08-07T01:24:38;101890.34;;;13.92;76.97
82266;BME280;71866;53.340;-6.308;2023-08-07T01:32:24;101895.13;;;13.89;77.35
82266;BME280;71866;53.340;-6.308;2023-08-07T01:34:54;101889.75;;;13.89;76.01
82266;BME280;71866;53.340;-6.308;2023-08-07T01:37:23;101889.63;;;13.90;76.83
82266;BME280;71866;53.340;-6.308;2023-08-07T01:39:50;101887.06;;;13.89;77.76
82266;BME280;71866;53.340;-6.308;2023-08-07T01:42:17;101886.34;;;13.87;76.31
82266;BME280;71866;53.340;-6.308;2023-08-07T01:44:45;101884.91;;;13.83;77.03
82266;BME280;71866;53.340;-6.308;2023-08-07T01:47:12;101881.03;;;13.75;76.97
82266;BME280;71866;53.340;-6.308;2023-08-07T01:49:40;101886.63;;;13.72;77.89
82266;BME280;71866;53.340;-6.308;2023-08-07T01:52:07;101884.06;;;13.71;77.76
82266;BME280;71866;53.340;-6.308;2023-08-07T01:54:34;101885.19;;;13.68;77.40
82266;BME280;71866;53.340;-6.308;2023-08-07T01:57:02;101879.63;;;13.60;77.29
82266;BME280;71866;53.340;-6.308;2023-08-07T01:59:29;101881.44;;;13.60;78.12
82266;BME280;71866;53.340;-6.308;2023-08-07T02:01:56;101876.59;;;13.54;78.36
82266;BME280;71866;53.340;-6.308;2023-08-07T02:04:24;101870.75;;;13.49;78.46
82266;BME280;71866;53.340;-6.308;2023-08-07T02:06:50;101866.00;;;13.41;78.03
82266;BME280;71866;53.340;-6.308;2023-08-07T02:09:17;101857.84;;;13.31;78.75
82266;BME280;71866;53.340;-6.308;2023-08-07T02:11:44;101864.31;;;13.29;79.55
82266;BME280;71866;53.340;-6.308;2023-08-07T02:14:11;101861.03;;;13.25;79.81
82266;BME280;71866;53.340;-6.308;2023-08-07T02:16:39;101861.88;;;13.26;80.74
82266;BME280;71866;53.340;-6.308;2023-08-07T02:19:05;101857.63;;;13.23;80.42
82266;BME280;71866;53.340;-6.308;2023-08-07T02:21:32;101854.34;;;13.20;80.38
82266;BME280;71866;53.340;-6.308;2023-08-07T02:24:00;101859.59;;;13.21;80.68
82266;BME280;71866;53.340;-6.308;2023-08-07T02:26:27;101843.69;;;13.18;80.21
82266;BME280;71866;53.340;-6.308;2023-08-07T02:28:55;101855.78;;;13.24;81.74
82266;BME280;71866;53.340;-6.308;2023-08-07T02:31:22;101853.09;;;13.24;81.00
82266;BME280;71866;53.340;-6.308;2023-08-07T02:33:49;101845.75;;;13.26;80.79
82266;BME280;71866;53.340;-6.308;2023-08-07T02:36:16;101844.56;;;13.19;80.60
82266;BME280;71866;53.340;-6.308;2023-08-07T02:38:42;101845.28;;;13.21;80.19
82266;BME280;71866;53.340;-6.308;2023-08-07T02:41:10;101827.66;;;13.17;81.16
82266;BME280;71866;53.340;-6.308;2023-08-07T02:43:37;101831.09;;;13.19;80.80
82266;BME280;71866;53.340;-6.308;2023-08-07T02:46:03;101830.13;;;13.20;80.88
82266;BME280;71866;53.340;-6.308;2023-08-07T02:48:31;101823.66;;;13.11;80.80
82266;BME280;71866;53.340;-6.308;2023-08-07T02:50:57;101826.34;;;13.11;81.75
82266;BME280;71866;53.340;-6.308;2023-08-07T02:53:24;101823.19;;;13.06;80.83
82266;BME280;71866;53.340;-6.308;2023-08-07T02:55:52;101820.50;;;12.95;81.15
82266;BME280;71866;53.340;-6.308;2023-08-07T02:58:18;101822.59;;;12.91;81.66
82266;BME280;71866;53.340;-6.308;2023-08-07T03:00:47;101845.81;;;12.92;81.89
82266;BME280;71866;53.340;-6.308;2023-08-07T03:03:14;101854.13;;;12.89;82.22
82266;BME280;71866;53.340;-6.308;2023-08-07T03:05:51;101853.63;;;12.95;82.17
82266;BME280;71866;53.340;-6.308;2023-08-07T03:08:18;101837.16;;;12.89;82.37
82266;BME280;71866;53.340;-6.308;2023-08-07T03:10:56;101851.06;;;12.94;81.96
82266;BME280;71866;53.340;-6.308;2023-08-07T03:13:25;101849.34;;;12.93;81.84
82266;BME280;71866;53.340;-6.308;2023-08-07T03:16:03;101844.97;;;12.92;82.18
82266;BME280;71866;53.340;-6.308;2023-08-07T03:18:32;101849.59;;;13.01;82.35
82266;BME280;71866;53.340;-6.308;2023-08-07T03:20:58;101846.91;;;13.01;81.50
82266;BME280;71866;53.340;-6.308;2023-08-07T03:23:27;101844.09;;;13.02;81.71
82266;BME280;71866;53.340;-6.308;2023-08-07T03:26:09;101843.97;;;13.04;81.59
82266;BME280;71866;53.340;-6.308;2023-08-07T03:28:39;101846.78;;;13.02;81.91
82266;BME280;71866;53.340;-6.308;2023-08-07T03:31:07;101837.25;;;12.98;80.97
82266;BME280;71866;53.340;-6.308;2023-08-07T03:33:33;101836.50;;;12.96;81.54
82266;BME280;71866;53.340;-6.308;2023-08-07T03:36:01;101830.41;;;12.94;82.12
82266;BME280;71866;53.340;-6.308;2023-08-07T03:38:28;101831.63;;;13.01;81.49
82266;BME280;71866;53.340;-6.308;2023-08-07T03:40:55;101832.84;;;13.08;81.94
82266;BME280;71866;53.340;-6.308;2023-08-07T03:43:22;101832.44;;;13.13;81.50
82266;BME280;71866;53.340;-6.308;2023-08-07T03:45:54;101823.41;;;13.14;81.13
82266;BME280;71866;53.340;-6.308;2023-08-07T03:48:26;101812.50;;;13.15;80.91
82266;BME280;71866;53.340;-6.308;2023-08-07T03:50:53;101819.50;;;13.18;81.87
82266;BME280;71866;53.340;-6.308;2023-08-07T03:53:28;101814.00;;;13.20;80.75
82266;BME280;71866;53.340;-6.308;2023-08-07T03:55:55;101806.38;;;13.25;81.12
82266;BME280;71866;53.340;-6.308;2023-08-07T03:58:22;101805.88;;;13.31;81.69
82266;BME280;71866;53.340;-6.308;2023-08-07T04:00:50;101803.50;;;13.37;81.83
82266;BME280;71866;53.340;-6.308;2023-08-07T04:03:20;101813.41;;;13.37;80.11
82266;BME280;71866;53.340;-6.308;2023-08-07T04:05:47;101807.94;;;13.38;80.51
82266;BME280;71866;53.340;-6.308;2023-08-07T04:08:14;101815.13;;;13.38;80.38
82266;BME280;71866;53.340;-6.308;2023-08-07T04:10:41;101810.50;;;13.40;80.16
82266;BME280;71866;53.340;-6.308;2023-08-07T04:13:08;101807.31;;;13.35;80.33
82266;BME280;71866;53.340;-6.308;2023-08-07T04:15:35;101811.38;;;13.29;80.04
82266;BME280;71866;53.340;-6.308;2023-08-07T04:18:02;101802.19;;;13.32;80.63
82266;BME280;71866;53.340;-6.308;2023-08-07T04:20:30;101797.34;;;13.26;80.11
82266;BME280;71866;53.340;-6.308;2023-08-07T04:22:56;101802.84;;;13.24;81.33
82266;BME280;71866;53.340;-6.308;2023-08-07T04:25:23;101803.31;;;13.29;80.46
82266;BME280;71866;53.340;-6.308;2023-08-07T04:27:51;101785.13;;;13.22;79.99
82266;BME280;71866;53.340;-6.308;2023-08-07T04:30:17;101814.41;;;13.36;80.39
82266;BME280;71866;53.340;-6.308;2023-08-07T04:32:44;101810.00;;;13.35;80.14
82266;BME280;71866;53.340;-6.308;2023-08-07T04:35:11;101816.00;;;13.38;80.51
82266;BME280;71866;53.340;-6.308;2023-08-07T04:37:38;101818.69;;;13.38;79.62
82266;BME280;71866;53.340;-6.308;2023-08-07T04:40:07;101822.97;;;13.41;81.03
82266;BME280;71866;53.340;-6.308;2023-08-07T04:42:34;101817.44;;;13.42;80.53
82266;BME280;71866;53.340;-6.308;2023-08-07T04:45:02;101810.50;;;13.40;80.30
82266;BME280;71866;53.340;-6.308;2023-08-07T04:47:28;101813.66;;;13.45;79.58
82266;BME280;71866;53.340;-6.308;2023-08-07T04:49:56;101815.22;;;13.48;79.35
82266;BME280;71866;53.340;-6.308;2023-08-07T04:52:22;101819.50;;;13.50;80.29
82266;BME280;71866;53.340;-6.308;2023-08-07T04:54:52;101811.16;;;13.53;80.52
82266;BME280;71866;53.340;-6.308;2023-08-07T04:57:19;101820.47;;;13.49;80.03
82266;BME280;71866;53.340;-6.308;2023-08-07T04:59:45;101806.69;;;13.42;80.03
82266;BME280;71866;53.340;-6.308;2023-08-07T05:02:13;101818.50;;;13.51;79.90
82266;BME280;71866;53.340;-6.308;2023-08-07T05:04:39;101808.91;;;13.58;80.56
82266;BME280;71866;53.340;-6.308;2023-08-07T05:07:07;101814.50;;;13.66;78.90
82266;BME280;71866;53.340;-6.308;2023-08-07T05:09:34;101800.78;;;13.69;79.73
82266;BME280;71866;53.340;-6.308;2023-08-07T05:12:01;101806.28;;;13.68;78.68
82266;BME280;71866;53.340;-6.308;2023-08-07T05:14:31;101799.91;;;13.69;79.16
82266;BME280;71866;53.340;-6.308;2023-08-07T05:16:59;101809.31;;;13.74;79.10
82266;BME280;71866;53.340;-6.308;2023-08-07T05:19:25;101810.28;;;13.73;78.65
82266;BME280;71866;53.340;-6.308;2023-08-07T05:21:52;101804.06;;;13.73;79.08
82266;BME280;71866;53.340;-6.308;2023-08-07T05:24:20;101794.88;;;13.75;79.56
82266;BME280;71866;53.340;-6.308;2023-08-07T05:26:47;101797.31;;;13.79;79.23
82266;BME280;71866;53.340;-6.308;2023-08-07T05:29:14;101801.56;;;13.81;79.94
82266;BME280;71866;53.340;-6.308;2023-08-07T05:31:41;101800.59;;;13.82;78.51
82266;BME280;71866;53.340;-6.308;2023-08-07T05:34:07;101806.69;;;13.84;79.03
82266;BME280;71866;53.340;-6.308;2023-08-07T05:36:35;101804.13;;;13.83;78.18
82266;BME280;71866;53.340;-6.308;2023-08-07T05:39:02;101808.13;;;13.88;79.43
82266;BME280;71866;53.340;-6.308;2023-08-07T05:41:32;101811.53;;;13.90;78.92
82266;BME280;71866;53.340;-6.308;2023-08-07T05:43:59;101814.50;;;13.87;77.34
82266;BME280;71866;53.340;-6.308;2023-08-07T05:46:26;101823.28;;;13.89;78.30
82266;BME280;71866;53.340;-6.308;2023-08-07T05:48:53;101814.78;;;13.84;78.88
82266;BME280;71866;53.340;-6.308;2023-08-07T05:51:20;101809.44;;;13.94;79.35
82266;BME280;71866;53.340;-6.308;2023-08-07T05:53:48;101808.91;;;14.00;78.21
82266;BME280;71866;53.340;-6.308;2023-08-07T05:56:15;101805.22;;;14.01;77.69
82266;BME280;71866;53.340;-6.308;2023-08-07T05:58:42;101805.66;;;14.06;77.96
82266;BME280;71866;53.340;-6.308;2023-08-07T06:01:09;101796.31;;;14.10;77.25
82266;BME280;71866;53.340;-6.308;2023-08-07T06:03:36;101811.25;;;14.14;78.35
82266;BME280;71866;53.340;-6.308;2023-08-07T06:06:04;101803.19;;;14.14;78.14
82266;BME280;71866;53.340;-6.308;2023-08-07T06:08:32;101806.84;;;14.13;77.16
82266;BME280;71866;53.340;-6.308;2023-08-07T06:10:58;101806.31;;;14.19;77.59
82266;BME280;71866;53.340;-6.308;2023-08-07T06:13:26;101805.78;;;14.25;78.28
82266;BME280;71866;53.340;-6.308;2023-08-07T06:16:02;101801.69;;;14.31;77.02
82266;BME280;71866;53.340;-6.308;2023-08-07T06:18:29;101800.00;;;14.39;77.30
82266;BME280;71866;53.340;-6.308;2023-08-07T06:20:56;101799.00;;;14.40;77.79
82266;BME280;71866;53.340;-6.308;2023-08-07T06:23:24;101798.88;;;14.42;77.71
82266;BME280;71866;53.340;-6.308;2023-08-07T06:25:50;101793.81;;;14.49;77.18
82266;BME280;71866;53.340;-6.308;2023-08-07T06:28:23;101794.81;;;14.48;76.82
82266;BME280;71866;53.340;-6.308;2023-08-07T06:30:50;101788.63;;;14.57;77.32
82266;BME280;71866;53.340;-6.308;2023-08-07T06:33:17;101797.13;;;14.62;77.52
82266;BME280;71866;53.340;-6.308;2023-08-07T06:35:44;101795.00;;;14.65;76.33
82266;BME280;71866;53.340;-6.308;2023-08-07T06:38:11;101799.13;;;14.69;77.15
82266;BME280;71866;53.340;-6.308;2023-08-07T06:40:38;101796.72;;;14.76;77.29
82266;BME280;71866;53.340;-6.308;2023-08-07T06:43:05;101795.59;;;14.69;77.00
82266;BME280;71866;53.340;-6.308;2023-08-07T06:45:32;101798.28;;;14.69;76.03
82266;BME280;71866;53.340;-6.308;2023-08-07T06:47:59;101796.56;;;14.68;77.00
82266;BME280;71866;53.340;-6.308;2023-08-07T06:50:27;101786.78;;;14.67;76.83
82266;BME280;71866;53.340;-6.308;2023-08-07T06:52:54;101787.50;;;14.69;77.03
82266;BME280;71866;53.340;-6.308;2023-08-07T06:55:20;101780.97;;;14.72;76.50
82266;BME280;71866;53.340;-6.308;2023-08-07T06:57:48;101785.97;;;14.86;77.59
82266;BME280;71866;53.340;-6.308;2023-08-07T07:00:15;101781.13;;;14.80;76.30
82266;BME280;71866;53.340;-6.308;2023-08-07T07:02:43;101791.06;;;14.79;76.94
82266;BME280;71866;53.340;-6.308;2023-08-07T07:05:09;101790.78;;;14.73;75.49
82266;BME280;71866;53.340;-6.308;2023-08-07T07:07:36;101788.94;;;14.83;76.26
82266;BME280;71866;53.340;-6.308;2023-08-07T07:10:04;101788.25;;;14.90;76.35
82266;BME280;71866;53.340;-6.308;2023-08-07T07:12:31;101792.94;;;14.98;76.41
82266;BME280;71866;53.340;-6.308;2023-08-07T07:14:59;101792.81;;;14.90;74.88
82266;BME280;71866;53.340;-6.308;2023-08-07T07:17:25;101792.81;;;14.99;75.68
82266;BME280;71866;53.340;-6.308;2023-08-07T07:19:53;101789.25;;;15.09;75.53
82266;BME280;71866;53.340;-6.308;2023-08-07T07:22:20;101794.66;;;15.18;75.80
82266;BME280;71866;53.340;-6.308;2023-08-07T07:24:46;101794.22;;;15.13;74.66
82266;BME280;71866;53.340;-6.308;2023-08-07T07:27:14;101790.69;;;15.13;74.16
82266;BME280;71866;53.340;-6.308;2023-08-07T07:29:41;101784.28;;;15.14;74.79
82266;BME280;71866;53.340;-6.308;2023-08-07T07:32:08;101785.28;;;15.13;74.46
82266;BME280;71866;53.340;-6.308;2023-08-07T07:34:35;101781.44;;;15.15;74.78
82266;BME280;71866;53.340;-6.308;2023-08-07T07:37:03;101790.81;;;15.21;74.40
82266;BME280;71866;53.340;-6.308;2023-08-07T07:39:30;101787.56;;;15.27;75.21
82266;BME280;71866;53.340;-6.308;2023-08-07T07:41:56;101795.81;;;15.35;75.10
82266;BME280;71866;53.340;-6.308;2023-08-07T07:44:24;101787.69;;;15.45;74.28
82266;BME280;71866;53.340;-6.308;2023-08-07T07:46:51;101795.06;;;15.52;73.84
82266;BME280;71866;53.340;-6.308;2023-08-07T07:49:20;101794.66;;;15.47;72.61
82266;BME280;71866;53.340;-6.308;2023-08-07T07:51:46;101780.03;;;15.40;73.06
82266;BME280;71866;53.340;-6.308;2023-08-07T07:54:14;101784.00;;;15.46;73.18
82266;BME280;71866;53.340;-6.308;2023-08-07T07:56:42;101788.66;;;15.53;72.28
82266;BME280;71866;53.340;-6.308;2023-08-07T07:59:12;101786.13;;;15.52;72.27
82266;BME280;71866;53.340;-6.308;2023-08-07T08:01:38;101787.00;;;15.62;72.81
82266;BME280;71866;53.340;-6.308;2023-08-07T08:04:06;101788.53;;;15.55;71.41
82266;BME280;71866;53.340;-6.308;2023-08-07T08:06:34;101780.59;;;15.44;71.55
82266;BME280;71866;53.340;-6.308;2023-08-07T08:09:01;101788.84;;;15.61;72.78
82266;BME280;71866;53.340;-6.308;2023-08-07T08:11:29;101785.44;;;15.69;70.84
82266;BME280;71866;53.340;-6.308;2023-08-07T08:13:56;101786.94;;;15.81;72.47
82266;BME280;71866;53.340;-6.308;2023-08-07T08:16:24;101789.06;;;15.87;71.89
82266;BME280;71866;53.340;-6.308;2023-08-07T08:18:50;101781.25;;;15.84;70.61
82266;BME280;71866;53.340;-6.308;2023-08-07T08:21:19;101786.91;;;15.91;70.24
82266;BME280;71866;53.340;-6.308;2023-08-07T08:23:46;101784.06;;;16.02;70.33
82266;BME280;71866;53.340;-6.308;2023-08-07T08:26:13;101782.78;;;16.06;69.83
82266;BME280;71866;53.340;-6.308;2023-08-07T08:28:40;101775.22;;;16.10;68.89
82266;BME280;71866;53.340;-6.308;2023-08-07T08:31:06;101779.16;;;16.15;69.62
82266;BME280;71866;53.340;-6.308;2023-08-07T08:33:34;101761.94;;;16.16;69.04
82266;BME280;71866;53.340;-6.308;2023-08-07T08:36:02;101769.84;;;16.27;69.41
82266;BME280;71866;53.340;-6.308;2023-08-07T08:38:28;101772.97;;;16.33;70.19
82266;BME280;71866;53.340;-6.308;2023-08-07T08:40:55;101769.09;;;16.35;69.42
82266;BME280;71866;53.340;-6.308;2023-08-07T08:43:23;101767.84;;;16.39;69.16
82266;BME280;71866;53.340;-6.308;2023-08-07T08:45:51;101772.25;;;16.31;68.99
82266;BME280;71866;53.340;-6.308;2023-08-07T08:48:21;101761.28;;;16.42;71.02
82266;BME280;71866;53.340;-6.308;2023-08-07T08:50:49;101766.63;;;16.51;68.13
82266;BME280;71866;53.340;-6.308;2023-08-07T08:53:17;101759.41;;;16.70;68.86
82266;BME280;71866;53.340;-6.308;2023-08-07T08:55:45;101762.69;;;16.73;67.72
82266;BME280;71866;53.340;-6.308;2023-08-07T08:58:14;101764.78;;;16.79;68.69
82266;BME280;71866;53.340;-6.308;2023-08-07T09:00:42;101752.59;;;16.66;67.22
82266;BME280;71866;53.340;-6.308;2023-08-07T09:03:09;101763.13;;;16.69;67.52
82266;BME280;71866;53.340;-6.308;2023-08-07T09:05:37;101746.03;;;16.68;66.42
82266;BME280;71866;53.340;-6.308;2023-08-07T09:08:05;101754.50;;;16.83;67.67
82266;BME280;71866;53.340;-6.308;2023-08-07T09:10:32;101748.00;;;16.94;66.80
82266;BME280;71866;53.340;-6.308;2023-08-07T09:13:02;101750.47;;;17.05;66.52
82266;BME280;71866;53.340;-6.308;2023-08-07T09:15:31;101751.16;;;17.07;64.81
82266;BME280;71866;53.340;-6.308;2023-08-07T09:17:59;101739.75;;;17.13;67.17
82266;BME280;71866;53.340;-6.308;2023-08-07T09:20:26;101740.28;;;17.16;67.83
82266;BME280;71866;53.340;-6.308;2023-08-07T09:22:53;101737.09;;;17.21;66.88
82266;BME280;71866;53.340;-6.308;2023-08-07T09:25:28;101751.00;;;17.26;65.59
82266;BME280;71866;53.340;-6.308;2023-08-07T09:27:55;101744.38;;;17.21;66.24
82266;BME280;71866;53.340;-6.308;2023-08-07T09:30:28;101751.31;;;17.23;65.19
82266;BME280;71866;53.340;-6.308;2023-08-07T09:32:59;101751.09;;;17.16;66.86
82266;BME280;71866;53.340;-6.308;2023-08-07T09:35:29;101740.81;;;17.20;66.65
82266;BME280;71866;53.340;-6.308;2023-08-07T09:37:57;101733.00;;;17.17;66.52
82266;BME280;71866;53.340;-6.308;2023-08-07T09:40:23;101741.97;;;17.17;66.51
82266;BME280;71866;53.340;-6.308;2023-08-07T09:42:53;101740.88;;;17.28;68.61
82266;BME280;71866;53.340;-6.308;2023-08-07T09:48:00;101731.16;;;17.43;64.72
82266;BME280;71866;53.340;-6.308;2023-08-07T09:50:28;101743.31;;;17.57;64.78
82266;BME280;71866;53.340;-6.308;2023-08-07T09:52:56;101733.31;;;17.58;63.91
82266;BME280;71866;53.340;-6.308;2023-08-07T09:55:24;101743.22;;;17.67;64.69
82266;BME280;71866;53.340;-6.308;2023-08-07T09:57:51;101735.13;;;17.75;65.24
82266;BME280;71866;53.340;-6.308;2023-08-07T10:00:18;101731.78;;;17.81;64.70
82266;BME280;71866;53.340;-6.308;2023-08-07T10:02:48;101733.88;;;17.87;63.92
82266;BME280;71866;53.340;-6.308;2023-08-07T10:05:17;101727.38;;;17.80;63.97
82266;BME280;71866;53.340;-6.308;2023-08-07T10:07:43;101722.66;;;17.82;65.07
82266;BME280;71866;53.340;-6.308;2023-08-07T10:10:10;101723.06;;;17.95;63.99
82266;BME280;71866;53.340;-6.308;2023-08-07T10:12:38;101723.09;;;18.03;63.31
82266;BME280;71866;53.340;-6.308;2023-08-07T10:15:06;101731.28;;;18.11;62.60
82266;BME280;71866;53.340;-6.308;2023-08-07T10:17:33;101725.34;;;18.16;63.27
82266;BME280;71866;53.340;-6.308;2023-08-07T10:20:01;101724.50;;;18.16;62.45
82266;BME280;71866;53.340;-6.308;2023-08-07T10:22:30;101724.47;;;18.07;61.79
82266;BME280;71866;53.340;-6.308;2023-08-07T10:25:01;101724.84;;;18.12;60.76
82266;BME280;71866;53.340;-6.308;2023-08-07T10:27:32;101722.72;;;18.24;63.19
82266;BME280;71866;53.340;-6.308;2023-08-07T10:30:05;101713.03;;;18.22;60.91
82266;BME280;71866;53.340;-6.308;2023-08-07T10:32:33;101726.59;;;18.22;62.79
82266;BME280;71866;53.340;-6.308;2023-08-07T10:35:05;101716.09;;;18.27;62.78
82266;BME280;71866;53.340;-6.308;2023-08-07T10:40:06;101722.56;;;18.34;64.63
82266;BME280;71866;53.340;-6.308;2023-08-07T10:42:59;101702.56;;;18.27;61.34
82266;BME280;71866;53.340;-6.308;2023-08-07T10:45:28;101720.47;;;18.20;63.79
82266;BME280;71866;53.340;-6.308;2023-08-07T10:50:33;101718.16;;;17.91;63.59
82266;BME280;71866;53.340;-6.308;2023-08-07T10:53:01;101706.94;;;17.86;65.15
82266;BME280;71866;53.340;-6.308;2023-08-07T10:55:48;101709.09;;;17.82;65.30
82266;BME280;71866;53.340;-6.308;2023-08-07T10:58:40;101707.53;;;17.71;64.77
82266;BME280;71866;53.340;-6.308;2023-08-07T11:03:54;101718.28;;;17.63;64.73
82266;BME280;71866;53.340;-6.308;2023-08-07T11:06:28;101713.72;;;17.64;63.60
82266;BME280;71866;53.340;-6.308;2023-08-07T11:08:55;101718.88;;;17.75;65.38
82266;BME280;71866;53.340;-6.308;2023-08-07T11:11:22;101718.34;;;17.71;64.68
82266;BME280;71866;53.340;-6.308;2023-08-07T11:13:50;101717.47;;;17.89;65.27
82266;BME280;71866;53.340;-6.308;2023-08-07T11:16:19;101705.69;;;17.80;64.76
82266;BME280;71866;53.340;-6.308;2023-08-07T11:18:45;101697.72;;;17.78;64.96
82266;BME280;71866;53.340;-6.308;2023-08-07T11:21:13;101713.59;;;17.99;64.68
82266;BME280;71866;53.340;-6.308;2023-08-07T11:23:40;101702.22;;;17.88;60.83
82266;BME280;71866;53.340;-6.308;2023-08-07T11:26:09;101698.25;;;17.82;61.98
82266;BME280;71866;53.340;-6.308;2023-08-07T11:28:36;101696.94;;;17.86;62.84
82266;BME280;71866;53.340;-6.308;2023-08-07T11:31:02;101686.84;;;17.96;63.77
82266;BME280;71866;53.340;-6.308;2023-08-07T11:33:30;101681.50;;;18.21;63.54
82266;BME280;71866;53.340;-6.308;2023-08-07T11:35:57;101680.19;;;18.25;62.15
82266;BME280;71866;53.340;-6.308;2023-08-07T11:38:38;101678.66;;;18.22;62.72
82266;BME280;71866;53.340;-6.308;2023-08-07T11:41:07;101679.19;;;18.42;64.46
82266;BME280;71866;53.340;-6.308;2023-08-07T11:43:34;101669.38;;;18.49;65.16
82266;BME280;71866;53.340;-6.308;2023-08-07T11:46:03;101665.31;;;18.53;66.69
82266;BME280;71866;53.340;-6.308;2023-08-07T11:48:31;101670.56;;;18.55;66.08
82266;BME280;71866;53.340;-6.308;2023-08-07T11:51:00;101664.97;;;18.56;62.68
82266;BME280;71866;53.340;-6.308;2023-08-07T11:53:29;101668.44;;;18.74;63.16
82266;BME280;71866;53.340;-6.308;2023-08-07T11:56:07;101663.69;;;18.85;63.93
82266;BME280;71866;53.340;-6.308;2023-08-07T11:58:37;101657.22;;;18.94;63.39
82266;BME280;71866;53.340;-6.308;2023-08-07T12:03:35;101657.91;;;19.12;62.94
82266;BME280;71866;53.340;-6.308;2023-08-07T12:06:04;101643.47;;;19.20;61.22
82266;BME280;71866;53.340;-6.308;2023-08-07T12:08:40;101639.56;;;19.22;61.78
82266;BME280;71866;53.340;-6.308;2023-08-07T12:11:11;101640.22;;;19.32;60.81
82266;BME280;71866;53.340;-6.308;2023-08-07T12:13:43;101642.09;;;19.40;60.61
82266;BME280;71866;53.340;-6.308;2023-08-07T12:16:10;101628.88;;;19.37;61.49
82266;BME280;71866;53.340;-6.308;2023-08-07T12:18:38;101630.22;;;19.41;59.72
82266;BME280;71866;53.340;-6.308;2023-08-07T12:21:07;101639.53;;;19.47;61.40
82266;BME280;71866;53.340;-6.308;2023-08-07T12:23:35;101638.50;;;19.48;60.42
82266;BME280;71866;53.340;-6.308;2023-08-07T12:26:04;101640.56;;;19.29;58.49
82266;BME280;71866;53.340;-6.308;2023-08-07T12:28:30;101637.34;;;19.26;59.33
82266;BME280;71866;53.340;-6.308;2023-08-07T12:30:58;101638.22;;;19.34;61.00
82266;BME280;71866;53.340;-6.308;2023-08-07T12:33:25;101632.75;;;19.43;61.68
82266;BME280;71866;53.340;-6.308;2023-08-07T12:35:52;101628.53;;;19.40;60.48
82266;BME280;71866;53.340;-6.308;2023-08-07T12:38:20;101632.06;;;19.49;60.78
82266;BME280;71866;53.340;-6.308;2023-08-07T12:40:46;101613.59;;;19.36;59.24
82266;BME280;71866;53.340;-6.308;2023-08-07T12:43:13;101618.81;;;19.46;60.77
82266;BME280;71866;53.340;-6.308;2023-08-07T12:45:41;101623.75;;;19.42;58.69
82266;BME280;71866;53.340;-6.308;2023-08-07T12:48:10;101616.78;;;19.56;59.52
82266;BME280;71866;53.340;-6.308;2023-08-07T12:50:38;101622.03;;;19.57;60.18
82266;BME280;71866;53.340;-6.308;2023-08-07T12:53:06;101617.78;;;19.63;57.22
82266;BME280;71866;53.340;-6.308;2023-08-07T12:55:33;101606.72;;;19.64;57.97
82266;BME280;71866;53.340;-6.308;2023-08-07T12:58:01;101615.72;;;19.65;59.20
82266;BME280;71866;53.340;-6.308;2023-08-07T13:00:27;101600.84;;;19.53;57.92
82266;BME280;71866;53.340;-6.308;2023-08-07T13:02:54;101609.97;;;19.60;57.98
82266;BME280;71866;53.340;-6.308;2023-08-07T13:05:22;101609.59;;;19.71;58.55
82266;BME280;71866;53.340;-6.308;2023-08-07T13:07:48;101607.38;;;19.75;57.51